createdAt,value
2019-05-28T00:00:41.744Z,10.65
2019-05-28T00:03:10.393Z,17.60
2019-05-28T00:05:38.998Z,14.25
2019-05-28T00:08:07.792Z,13.75
2019-05-28T00:10:36.462Z,20.37
2019-05-28T00:13:05.127Z,14.90
2019-05-28T00:15:33.838Z,12.00
2019-05-28T00:18:02.549Z,17.60
2019-05-28T00:20:31.180Z,13.50
2019-05-28T00:22:59.823Z,12.30
2019-05-28T00:25:29.515Z,12.68
2019-05-28T00:27:58.109Z,16.65
2019-05-28T00:30:27.003Z,14.38
2019-05-28T00:32:55.566Z,15.40
2019-05-28T00:35:24.194Z,11.40
2019-05-28T00:37:52.860Z,12.68
2019-05-28T00:40:21.690Z,13.83
2019-05-28T00:42:50.332Z,10.28
2019-05-28T00:45:19.362Z,11.28
2019-05-28T00:47:47.963Z,12.13
2019-05-28T00:50:17.259Z,12.30
2019-05-28T00:52:45.929Z,13.72
2019-05-28T00:55:14.979Z,17.17
2019-05-28T00:57:46.144Z,17.05
2019-05-28T01:00:15.777Z,16.73
2019-05-28T01:02:44.434Z,11.95
2019-05-28T01:05:13.451Z,13.93
2019-05-28T01:07:42.249Z,18.48
2019-05-28T01:10:12.226Z,18.40
2019-05-28T01:12:40.951Z,14.80
2019-05-28T01:15:10.173Z,18.73
2019-05-28T01:17:38.838Z,17.27
2019-05-28T01:20:08.950Z,19.25
2019-05-28T01:22:37.842Z,17.77
2019-05-28T01:25:07.415Z,15.32
2019-05-28T01:27:36.314Z,15.78
2019-05-28T01:30:10.213Z,15.58
2019-05-28T01:32:38.882Z,18.48
2019-05-28T01:35:07.812Z,14.43
2019-05-28T01:37:36.414Z,20.08
2019-05-28T01:40:08.003Z,17.35
2019-05-28T01:42:36.736Z,17.70
2019-05-28T01:45:06.904Z,13.68
2019-05-28T01:47:35.611Z,21.73
2019-05-28T01:50:06.140Z,11.70
2019-05-28T01:52:34.810Z,15.53
2019-05-28T01:55:05.007Z,20.32
2019-05-28T01:57:33.544Z,12.88
2019-05-28T02:00:02.163Z,14.18
2019-05-28T02:02:30.750Z,17.57
2019-05-28T02:04:59.417Z,17.70
2019-05-28T02:07:28.003Z,15.68
2019-05-28T02:09:56.650Z,18.55
2019-05-28T02:12:25.223Z,12.28
2019-05-28T02:14:53.843Z,16.87
2019-05-28T02:17:22.495Z,9.20
2019-05-28T02:19:51.105Z,17.80
2019-05-28T02:22:19.802Z,12.03
2019-05-28T02:24:48.487Z,14.13
2019-05-28T02:27:17.142Z,13.88
2019-05-28T02:29:45.855Z,15.85
2019-05-28T02:32:14.654Z,12.73
2019-05-28T02:34:43.234Z,13.28
2019-05-28T02:37:11.868Z,15.03
2019-05-28T02:39:40.474Z,12.85
2019-05-28T02:42:09.097Z,8.73
2019-05-28T02:44:37.765Z,11.43
2019-05-28T02:47:06.322Z,10.60
2019-05-28T02:49:35.001Z,13.72
2019-05-28T02:52:04.300Z,18.40
2019-05-28T02:54:33.139Z,14.83
2019-05-28T02:57:02.726Z,12.35
2019-05-28T02:59:34.720Z,10.98
2019-05-28T03:02:04.572Z,12.10
2019-05-28T03:04:35.765Z,11.30
2019-05-28T03:07:06.670Z,13.15
2019-05-28T03:09:38.354Z,13.20
2019-05-28T03:12:06.905Z,13.25
2019-05-28T03:14:35.551Z,11.73
2019-05-28T03:17:04.803Z,13.68
2019-05-28T03:19:34.905Z,9.80
2019-05-28T03:22:04.348Z,13.72
2019-05-28T03:24:34.916Z,9.88
2019-05-28T03:27:03.724Z,14.33
2019-05-28T03:29:32.426Z,9.45
2019-05-28T03:32:08.168Z,13.03
2019-05-28T03:34:31.486Z,19.12
2019-05-28T03:37:01.470Z,16.90
2019-05-28T03:39:31.516Z,11.83
2019-05-28T03:42:00.206Z,11.57
2019-05-28T03:44:28.899Z,9.45
2019-05-28T03:46:57.422Z,8.65
2019-05-28T03:49:26.035Z,11.15
2019-05-28T03:51:54.655Z,9.60
2019-05-28T03:54:23.247Z,12.90
2019-05-28T03:56:51.850Z,12.60
2019-05-28T03:59:20.486Z,8.68
2019-05-28T04:01:49.191Z,11.15
2019-05-28T04:04:17.926Z,8.85
2019-05-28T04:06:46.492Z,12.10
2019-05-28T04:09:15.201Z,9.35
2019-05-28T04:11:45.080Z,9.33
2019-05-28T04:14:14.337Z,9.38
2019-05-28T04:16:42.995Z,10.40
2019-05-28T04:19:11.666Z,8.78
2019-05-28T04:21:40.279Z,7.35
2019-05-28T04:24:08.849Z,15.45
2019-05-28T04:26:37.520Z,16.80
2019-05-28T04:29:06.347Z,7.12
2019-05-28T04:31:35.075Z,8.35
2019-05-28T04:34:03.722Z,8.83
2019-05-28T04:36:32.382Z,7.90
2019-05-28T04:39:01.078Z,11.18
2019-05-28T04:41:29.746Z,13.83
2019-05-28T04:43:58.320Z,8.83
2019-05-28T04:46:26.900Z,10.50
2019-05-28T04:48:55.495Z,13.60
2019-05-28T04:51:24.866Z,9.75
2019-05-28T04:53:53.437Z,14.00
2019-05-28T04:56:22.102Z,17.25
2019-05-28T04:58:50.673Z,8.90
2019-05-28T05:01:19.280Z,10.60
2019-05-28T05:03:47.913Z,9.93
2019-05-28T05:06:16.644Z,9.10
2019-05-28T05:08:45.205Z,10.68
2019-05-28T05:11:14.152Z,7.50
2019-05-28T05:13:42.705Z,13.83
2019-05-28T05:16:11.494Z,8.43
2019-05-28T05:18:40.112Z,9.45
2019-05-28T05:21:08.718Z,8.75
2019-05-28T05:23:37.393Z,12.30
2019-05-28T05:26:06.056Z,15.03
2019-05-28T05:28:34.820Z,7.80
2019-05-28T05:31:03.460Z,14.13
2019-05-28T05:33:32.066Z,10.50
2019-05-28T05:36:00.653Z,8.55
2019-05-28T05:38:29.258Z,12.07
2019-05-28T05:40:57.889Z,9.23
2019-05-28T05:43:26.547Z,9.58
2019-05-28T05:45:55.113Z,11.78
2019-05-28T05:48:23.858Z,12.40
2019-05-28T05:50:52.556Z,13.10
2019-05-28T05:53:21.315Z,11.90
2019-05-28T05:55:50.090Z,13.22
2019-05-28T05:58:18.742Z,11.95
2019-05-28T06:00:47.360Z,14.80
2019-05-28T06:03:15.993Z,12.95
2019-05-28T06:05:44.711Z,12.60
2019-05-28T06:08:13.308Z,31.27
2019-05-28T06:10:41.911Z,23.00
2019-05-28T06:13:10.487Z,22.02
2019-05-28T06:15:39.129Z,18.48
2019-05-28T06:18:08.029Z,30.68
2019-05-28T06:20:36.719Z,20.32
2019-05-28T06:23:05.412Z,16.25
2019-05-28T06:25:34.237Z,14.13
2019-05-28T06:28:02.810Z,14.93
2019-05-28T06:30:31.543Z,17.10
2019-05-28T06:33:00.134Z,11.70
2019-05-28T06:35:28.801Z,16.82
2019-05-28T06:37:57.407Z,14.68
2019-05-28T06:40:26.219Z,15.90
2019-05-28T06:42:54.867Z,16.85
2019-05-28T06:45:23.606Z,12.90
2019-05-28T06:47:52.209Z,10.82
2019-05-28T06:50:21.065Z,12.85
2019-05-28T06:52:49.648Z,16.32
2019-05-28T06:55:18.409Z,10.30
2019-05-28T06:57:47.006Z,12.40
2019-05-28T07:00:16.147Z,13.45
2019-05-28T07:02:45.002Z,9.83
2019-05-28T07:05:13.824Z,9.23
2019-05-28T07:07:42.423Z,8.03
2019-05-28T07:10:11.597Z,12.05
2019-05-28T07:12:40.214Z,11.93
2019-05-28T07:15:09.132Z,9.23
2019-05-28T07:17:37.830Z,11.85
2019-05-28T07:20:08.826Z,12.13
2019-05-28T07:22:37.484Z,12.50
2019-05-28T07:25:07.523Z,12.15
2019-05-28T07:27:36.186Z,18.82
2019-05-28T07:30:07.278Z,13.08
2019-05-28T07:32:36.160Z,10.43
2019-05-28T07:35:06.328Z,9.80
2019-05-28T07:37:35.058Z,11.75
2019-05-28T07:40:07.610Z,10.60
2019-05-28T07:42:36.288Z,8.75
2019-05-28T07:45:06.921Z,10.38
2019-05-28T07:47:35.691Z,11.05
2019-05-28T07:50:06.214Z,13.78
2019-05-28T07:52:34.853Z,7.90
2019-05-28T07:55:03.669Z,10.00
2019-05-28T07:57:32.263Z,9.45
2019-05-28T08:00:05.270Z,10.63
2019-05-28T08:02:31.139Z,11.80
2019-05-28T08:04:59.795Z,12.98
2019-05-28T08:07:28.564Z,15.55
2019-05-28T08:09:57.270Z,18.55
2019-05-28T08:12:26.059Z,20.32
2019-05-28T08:14:54.773Z,18.80
2019-05-28T08:17:23.409Z,18.35
2019-05-28T08:19:52.089Z,19.92
2019-05-28T08:22:20.696Z,19.30
2019-05-28T08:24:49.274Z,18.92
2019-05-28T08:27:17.937Z,21.82
2019-05-28T08:29:46.577Z,25.00
2019-05-28T08:32:15.293Z,24.02
2019-05-28T08:34:43.974Z,26.05
2019-05-28T08:37:12.687Z,19.12
2019-05-28T08:39:41.287Z,22.48
2019-05-28T08:42:10.059Z,18.10
2019-05-28T08:44:38.692Z,17.07
2019-05-28T08:47:07.361Z,16.55
2019-05-28T08:49:36.230Z,22.27
2019-05-28T08:52:05.211Z,21.73
2019-05-28T08:54:33.867Z,23.05
2019-05-28T08:57:02.507Z,29.10
2019-05-28T08:59:31.278Z,29.60
2019-05-28T09:01:59.870Z,26.05
2019-05-28T09:04:44.402Z,29.65
2019-05-28T09:07:13.035Z,29.18
2019-05-28T09:09:41.689Z,26.85
2019-05-28T09:12:10.430Z,23.32
2019-05-28T09:14:54.834Z,16.52
2019-05-28T09:17:09.651Z,19.17
2019-05-28T09:19:38.511Z,17.15
2019-05-28T09:22:07.222Z,28.42
2019-05-28T09:24:35.814Z,14.63
2019-05-28T09:27:04.720Z,15.58
2019-05-28T09:29:33.353Z,18.57
2019-05-28T09:32:02.027Z,15.72
2019-05-28T09:34:30.622Z,14.95
2019-05-28T09:36:59.227Z,17.85
2019-05-28T09:39:27.848Z,18.05
2019-05-28T09:41:56.514Z,13.55
2019-05-28T09:44:25.251Z,16.67
2019-05-28T09:46:54.393Z,18.42
2019-05-28T09:49:23.146Z,16.42
2019-05-28T09:51:51.836Z,19.48
2019-05-28T09:54:20.599Z,14.68
2019-05-28T09:56:49.576Z,14.47
2019-05-28T09:59:18.628Z,17.92
2019-05-28T10:01:47.505Z,23.38
2019-05-28T10:04:16.252Z,10.03
2019-05-28T10:06:44.901Z,13.28
2019-05-28T10:09:13.508Z,15.68
2019-05-28T10:11:42.135Z,9.38
2019-05-28T10:14:11.001Z,11.55
2019-05-28T10:16:39.671Z,12.25
2019-05-28T10:19:08.349Z,11.75
2019-05-28T10:21:37.154Z,12.10
2019-05-28T10:24:05.895Z,12.70
2019-05-28T10:26:34.601Z,10.55
2019-05-28T10:29:03.268Z,14.07
2019-05-28T10:31:31.958Z,6.22
2019-05-28T10:34:00.585Z,11.90
2019-05-28T10:36:36.029Z,20.20
2019-05-28T10:38:59.711Z,10.55
2019-05-28T10:41:28.308Z,11.60
2019-05-28T10:43:56.939Z,12.13
2019-05-28T10:46:25.545Z,11.73
2019-05-28T10:48:54.287Z,16.10
2019-05-28T10:51:22.900Z,13.43
2019-05-28T10:53:51.614Z,11.22
2019-05-28T10:56:20.411Z,11.88
2019-05-28T10:58:49.191Z,9.83
2019-05-28T11:01:17.869Z,7.42
2019-05-28T11:03:47.335Z,8.10
2019-05-28T11:06:16.095Z,8.65
2019-05-28T11:08:44.708Z,14.93
2019-05-28T11:11:13.351Z,5.90
2019-05-28T11:13:52.622Z,11.35
2019-05-28T11:16:12.326Z,10.20
2019-05-28T11:18:40.959Z,11.48
2019-05-28T11:21:10.229Z,12.95
2019-05-28T11:23:38.937Z,8.38
2019-05-28T11:26:07.674Z,11.45
2019-05-28T11:28:36.415Z,6.62
2019-05-28T11:31:05.299Z,9.13
2019-05-28T11:33:33.917Z,13.20
2019-05-28T11:36:02.492Z,9.08
2019-05-28T11:38:31.131Z,13.30
2019-05-28T11:40:59.812Z,14.38
2019-05-28T11:43:28.550Z,10.88
2019-05-28T11:45:57.289Z,13.15
2019-05-28T11:48:26.052Z,8.60
2019-05-28T11:50:54.791Z,14.60
2019-05-28T11:53:23.504Z,10.30
2019-05-28T11:55:52.499Z,15.10
2019-05-28T11:58:21.079Z,14.15
2019-05-28T12:00:49.822Z,16.73
2019-05-28T12:03:18.387Z,17.40
2019-05-28T12:05:47.098Z,11.80
2019-05-28T12:08:15.803Z,13.25
2019-05-28T12:10:44.463Z,14.40
2019-05-28T12:13:13.171Z,12.85
2019-05-28T12:15:41.870Z,11.55
2019-05-28T12:18:10.665Z,17.12
2019-05-28T12:20:39.417Z,15.55
2019-05-28T12:23:11.628Z,16.30
2019-05-28T12:25:39.750Z,12.10
2019-05-28T12:28:08.387Z,14.40
2019-05-28T12:30:37.147Z,15.83
2019-05-28T12:33:05.903Z,12.55
2019-05-28T12:35:34.585Z,20.77
2019-05-28T12:38:03.311Z,13.40
2019-05-28T12:40:46.541Z,17.05
2019-05-28T12:43:02.185Z,13.32
2019-05-28T12:45:35.665Z,17.27
2019-05-28T12:48:12.542Z,19.67
2019-05-28T12:50:31.565Z,16.27
2019-05-28T12:53:00.306Z,13.53
2019-05-28T12:55:29.162Z,14.60
2019-05-28T12:57:57.775Z,11.88
2019-05-28T13:00:27.528Z,10.10
2019-05-28T13:02:57.788Z,11.38
2019-05-28T13:05:28.469Z,13.20
2019-05-28T13:08:08.325Z,10.82
2019-05-28T13:10:28.010Z,13.13
2019-05-28T13:12:56.796Z,10.18
2019-05-28T13:15:25.462Z,12.90
2019-05-28T13:17:54.584Z,15.65
2019-05-28T13:20:23.266Z,13.35
2019-05-28T13:22:51.863Z,14.53
2019-05-28T13:25:20.727Z,12.18
2019-05-28T13:27:49.326Z,13.18
2019-05-28T13:30:18.983Z,11.85
2019-05-28T13:32:47.777Z,13.75
2019-05-28T13:35:17.864Z,13.35
2019-05-28T13:37:46.627Z,10.60
2019-05-28T13:40:17.987Z,11.38
2019-05-28T13:42:46.589Z,15.28
2019-05-28T13:45:16.886Z,14.60
2019-05-28T13:47:45.662Z,15.05
2019-05-28T13:50:15.568Z,13.68
2019-05-28T13:52:45.740Z,12.40
2019-05-28T13:55:14.911Z,12.40
2019-05-28T13:57:43.645Z,15.13
2019-05-28T14:00:15.151Z,14.90
2019-05-28T14:02:46.383Z,17.20
2019-05-28T14:05:15.197Z,13.68
2019-05-28T14:07:43.953Z,14.98
2019-05-28T14:10:14.393Z,20.35
2019-05-28T14:12:43.004Z,15.32
2019-05-28T14:15:12.626Z,13.00
2019-05-28T14:17:41.383Z,18.02
2019-05-28T14:20:11.808Z,16.82
2019-05-28T14:22:40.392Z,12.75
2019-05-28T14:25:10.097Z,15.25
2019-05-28T14:27:38.804Z,17.25
2019-05-28T14:30:10.115Z,14.95
2019-05-28T14:32:38.761Z,17.02
2019-05-28T14:35:07.976Z,18.70
2019-05-28T14:37:36.623Z,16.87
2019-05-28T14:40:08.987Z,15.78
2019-05-28T14:42:37.654Z,19.40
2019-05-28T14:45:08.323Z,15.38
2019-05-28T14:47:37.009Z,16.80
2019-05-28T14:50:07.742Z,17.20
2019-05-28T14:52:36.451Z,15.60
2019-05-28T14:55:08.883Z,14.83
2019-05-28T14:57:37.650Z,15.93
2019-05-28T15:00:11.031Z,15.25
2019-05-28T15:02:39.734Z,17.90
2019-05-28T15:05:09.384Z,15.65
2019-05-28T15:07:38.053Z,17.98
2019-05-28T15:10:08.392Z,16.50
2019-05-28T15:12:37.038Z,16.35
2019-05-28T15:15:07.261Z,15.20
2019-05-28T15:17:35.977Z,17.80
2019-05-28T15:20:07.144Z,15.10
2019-05-28T15:22:35.847Z,17.80
2019-05-28T15:25:06.682Z,20.77
2019-05-28T15:27:35.356Z,16.97
2019-05-28T15:30:08.106Z,20.27
2019-05-28T15:32:36.693Z,19.82
2019-05-28T15:35:07.698Z,19.45
2019-05-28T15:37:36.409Z,21.07
2019-05-28T15:40:11.209Z,17.95
2019-05-28T15:42:39.904Z,21.30
2019-05-28T15:45:09.822Z,19.85
2019-05-28T15:47:39.291Z,26.05
2019-05-28T15:50:12.459Z,15.00
2019-05-28T15:52:41.203Z,17.27
2019-05-28T15:55:10.779Z,17.65
2019-05-28T15:57:39.376Z,20.52
2019-05-28T16:00:17.035Z,19.95
2019-05-28T16:02:45.617Z,21.57
2019-05-28T16:05:14.486Z,17.55
2019-05-28T16:07:43.080Z,18.73
2019-05-28T16:10:12.172Z,20.77
2019-05-28T16:12:40.926Z,17.73
2019-05-28T16:15:10.626Z,19.48
2019-05-28T16:17:39.435Z,22.10
2019-05-28T16:20:09.291Z,27.07
2019-05-28T16:22:37.944Z,25.65
2019-05-28T16:25:10.821Z,21.62
2019-05-28T16:30:08.375Z,28.70
2019-05-28T16:32:37.105Z,28.23
2019-05-28T16:35:07.324Z,30.60
2019-05-28T16:37:35.892Z,26.27
2019-05-28T16:40:15.140Z,26.52
2019-05-28T16:42:37.021Z,27.70
2019-05-28T16:45:07.683Z,29.45
2019-05-28T16:47:36.318Z,26.35
2019-05-28T16:50:06.862Z,28.87
2019-05-28T16:52:36.604Z,26.65
2019-05-28T16:55:06.751Z,26.40
2019-05-28T16:57:35.377Z,30.10
2019-05-28T17:00:05.984Z,26.15
2019-05-28T17:02:35.181Z,31.33
2019-05-28T17:05:07.972Z,30.30
2019-05-28T17:10:06.270Z,25.82
2019-05-28T17:12:35.005Z,19.67
2019-05-28T17:15:08.693Z,21.77
2019-05-28T17:17:38.999Z,22.32
2019-05-28T17:20:09.694Z,25.68
2019-05-28T17:22:38.426Z,23.15
2019-05-28T17:25:12.116Z,21.95
2019-05-28T17:27:40.906Z,24.37
2019-05-28T17:30:22.720Z,23.87
2019-05-28T17:32:40.350Z,24.32
2019-05-28T17:35:09.310Z,24.05
2019-05-28T17:37:37.978Z,25.60
2019-05-28T17:40:07.665Z,27.77
2019-05-28T17:42:36.414Z,27.45
2019-05-28T17:45:06.987Z,29.37
2019-05-28T17:47:43.002Z,27.93
2019-05-28T17:50:09.805Z,26.27
2019-05-28T17:52:40.694Z,31.02
2019-05-28T17:55:09.565Z,32.50
2019-05-28T17:57:38.246Z,34.92
2019-05-28T18:00:07.744Z,30.52
2019-05-28T18:02:36.302Z,28.95
2019-05-28T18:05:07.078Z,33.18
2019-05-28T18:07:37.363Z,33.78
2019-05-28T18:10:11.674Z,29.52
2019-05-28T18:12:40.543Z,35.45
2019-05-28T18:15:09.475Z,29.87
2019-05-28T18:17:38.241Z,38.58
2019-05-28T18:20:10.137Z,31.85
2019-05-28T18:22:38.947Z,35.55
2019-05-28T18:25:10.174Z,35.85
2019-05-28T18:27:40.184Z,38.48
2019-05-28T18:30:09.722Z,36.75
2019-05-28T18:32:38.668Z,38.17
2019-05-28T18:35:08.666Z,36.95
2019-05-28T18:37:37.536Z,38.25
2019-05-28T18:40:11.806Z,39.25
2019-05-28T18:42:40.389Z,38.83
2019-05-28T18:45:09.742Z,36.95
2019-05-28T18:47:38.989Z,42.50
2019-05-28T18:50:09.162Z,43.83
2019-05-28T18:52:37.972Z,49.18
2019-05-28T18:55:07.578Z,40.55
2019-05-28T18:57:36.264Z,43.58
2019-05-28T19:00:08.960Z,46.10
2019-05-28T19:02:37.885Z,43.20
2019-05-28T19:05:07.884Z,43.87
2019-05-28T19:07:36.667Z,40.65
2019-05-28T19:10:07.112Z,39.98
2019-05-28T19:12:35.740Z,39.85
2019-05-28T19:15:06.854Z,41.20
2019-05-28T19:17:35.610Z,43.87
2019-05-28T19:20:06.807Z,43.65
2019-05-28T19:22:35.490Z,40.50
2019-05-28T19:25:17.092Z,44.77
2019-05-28T19:27:45.783Z,51.33
2019-05-28T19:30:16.366Z,49.18
2019-05-28T19:32:45.054Z,48.68
2019-05-28T19:35:14.029Z,48.10
2019-05-28T19:37:42.993Z,42.83
2019-05-28T19:40:12.733Z,44.33
2019-05-28T19:42:41.289Z,47.35
2019-05-28T19:45:10.312Z,43.92
2019-05-28T19:47:38.932Z,48.42
2019-05-28T19:50:08.066Z,45.63
2019-05-28T19:52:36.677Z,51.85
2019-05-28T19:55:08.049Z,56.77
2019-05-28T19:57:36.747Z,56.98
2019-05-28T20:00:08.682Z,58.78
2019-05-28T20:02:37.529Z,53.53
2019-05-28T20:05:07.965Z,62.20
2019-05-28T20:07:36.539Z,70.62
2019-05-28T20:10:08.350Z,73.57
2019-05-28T20:12:37.018Z,73.70
2019-05-28T20:15:11.652Z,73.42
2019-05-28T20:17:40.523Z,82.30
2019-05-28T20:20:11.086Z,63.50
2019-05-28T20:22:39.787Z,84.67
2019-05-28T20:25:09.143Z,79.60
2019-05-28T20:27:37.746Z,84.52
2019-05-28T20:30:09.398Z,89.05
2019-05-28T20:32:38.147Z,95.28
2019-05-28T20:35:09.633Z,62.38
2019-05-28T20:37:38.599Z,83.67
2019-05-28T20:40:10.063Z,89.40
2019-05-28T20:42:38.854Z,75.92
2019-05-28T20:45:11.881Z,81.57
2019-05-28T20:50:19.666Z,117.85
2019-05-28T20:52:48.268Z,67.90
2019-05-28T20:55:17.600Z,76.95
2019-05-28T20:57:47.077Z,71.20
2019-05-28T21:00:18.649Z,68.45
2019-05-28T21:02:47.570Z,71.77
2019-05-28T21:05:16.575Z,66.00
2019-05-28T21:07:45.315Z,57.78
2019-05-28T21:10:14.288Z,80.67
2019-05-28T21:12:44.741Z,47.55
2019-05-28T21:15:16.075Z,57.60
2019-05-28T21:17:44.242Z,61.05
2019-05-28T21:20:13.679Z,69.58
2019-05-28T21:22:42.504Z,51.13
2019-05-28T21:25:11.461Z,46.00
2019-05-28T21:27:40.087Z,41.83
2019-05-28T21:30:09.658Z,36.73
2019-05-28T21:32:38.312Z,32.25
2019-05-28T21:35:07.422Z,42.08
2019-05-28T21:37:36.257Z,37.03
2019-05-28T21:40:06.585Z,41.30
2019-05-28T21:42:35.522Z,45.00
2019-05-28T21:45:05.535Z,34.80
2019-05-28T21:47:34.256Z,32.85
2019-05-28T21:50:04.658Z,35.20
2019-05-28T21:52:33.582Z,33.70
2019-05-28T21:55:04.781Z,36.42
2019-05-28T21:57:32.642Z,32.58
2019-05-28T22:00:02.362Z,40.30
2019-05-28T22:02:33.097Z,42.17
2019-05-28T22:05:06.265Z,41.15
2019-05-28T22:07:32.192Z,41.48
2019-05-28T22:10:02.138Z,39.55
2019-05-28T22:12:31.203Z,38.30
2019-05-28T22:15:00.097Z,37.15
2019-05-28T22:17:28.853Z,43.68
2019-05-28T22:19:58.273Z,39.60
2019-05-28T22:22:26.989Z,37.50
2019-05-28T22:24:56.347Z,33.58
2019-05-28T22:27:28.284Z,37.48
2019-05-28T22:29:57.033Z,28.52
2019-05-28T22:32:27.357Z,29.35
2019-05-28T22:34:56.034Z,28.85
2019-05-28T22:37:24.757Z,28.07
2019-05-28T22:39:53.476Z,33.25
2019-05-28T22:42:22.268Z,23.90
2019-05-28T22:44:50.998Z,26.35
2019-05-28T22:47:19.815Z,23.07
2019-05-28T22:49:48.527Z,20.62
2019-05-28T22:52:17.326Z,20.77
2019-05-28T22:54:46.046Z,19.15
2019-05-28T22:57:14.772Z,16.85
2019-05-28T22:59:43.507Z,14.98
2019-05-28T23:02:12.346Z,12.60
2019-05-28T23:04:40.934Z,8.63
2019-05-28T23:07:09.648Z,10.15
2019-05-28T23:09:38.283Z,10.75
2019-05-28T23:12:08.167Z,11.08
2019-05-28T23:14:36.746Z,10.38
2019-05-28T23:17:06.323Z,11.73
2019-05-28T23:19:35.045Z,8.70
2019-05-28T23:22:04.814Z,10.88
2019-05-28T23:24:33.613Z,9.43
2019-05-28T23:27:03.456Z,11.78
2019-05-28T23:29:32.207Z,10.18
2019-05-28T23:32:01.852Z,10.05
2019-05-28T23:34:30.634Z,9.55
2019-05-28T23:36:59.290Z,11.30
2019-05-28T23:39:27.865Z,10.30
2019-05-28T23:41:56.493Z,7.33
2019-05-28T23:44:25.606Z,8.25
2019-05-28T23:46:54.280Z,8.83
2019-05-28T23:49:23.043Z,5.58
2019-05-28T23:51:51.714Z,5.08
2019-05-28T23:54:20.296Z,4.50
2019-05-28T23:56:48.979Z,4.53
2019-05-28T23:59:18.059Z,3.90
